sensor_id;sensor_type;location;lat;lon;timestamp;temperature;humidity
21302;DHT22;10810;48.270;9.996;2023-03-24T00:00:17;11.20;99.90
21302;DHT22;10810;48.270;9.996;2023-03-24T00:02:45;11.20;99.90
21302;DHT22;10810;48.270;9.996;2023-03-24T00:05:14;11.20;99.90
21302;DHT22;10810;48.270;9.996;2023-03-24T00:07:42;11.20;99.90
21302;DHT22;10810;48.270;9.996;2023-03-24T00:10:10;11.30;99.90
21302;DHT22;10810;48.270;9.996;2023-03-24T00:12:39;11.20;99.90
21302;DHT22;10810;48.270;9.996;2023-03-24T00:15:10;11.10;99.90
21302;DHT22;10810;48.270;9.996;2023-03-24T00:17:41;11.10;99.90
21302;DHT22;10810;48.270;9.996;2023-03-24T00:20:13;11.20;99.90
21302;DHT22;10810;48.270;9.996;2023-03-24T00:22:42;11.20;99.90
21302;DHT22;10810;48.270;9.996;2023-03-24T00:25:13;11.20;99.90
21302;DHT22;10810;48.270;9.996;2023-03-24T00:27:40;11.30;99.90
21302;DHT22;10810;48.270;9.996;2023-03-24T00:30:11;11.20;99.90
21302;DHT22;10810;48.270;9.996;2023-03-24T00:32:40;11.20;99.90
21302;DHT22;10810;48.270;9.996;2023-03-24T00:35:09;11.10;99.90
21302;DHT22;10810;48.270;9.996;2023-03-24T00:37:38;11.10;99.90
21302;DHT22;10810;48.270;9.996;2023-03-24T00:40:09;11.10;99.90
21302;DHT22;10810;48.270;9.996;2023-03-24T00:42:37;11.00;99.90
21302;DHT22;10810;48.270;9.996;2023-03-24T00:45:07;11.00;99.90
21302;DHT22;10810;48.270;9.996;2023-03-24T00:47:34;10.90;99.90
21302;DHT22;10810;48.270;9.996;2023-03-24T00:50:06;11.00;99.90
21302;DHT22;10810;48.270;9.996;2023-03-24T00:52:34;11.10;99.90
21302;DHT22;10810;48.270;9.996;2023-03-24T00:55:03;11.20;99.90
21302;DHT22;10810;48.270;9.996;2023-03-24T00:57:31;11.20;99.90
21302;DHT22;10810;48.270;9.996;2023-03-24T01:00:01;11.20;99.90
21302;DHT22;10810;48.270;9.996;2023-03-24T01:02:35;11.20;99.90
21302;DHT22;10810;48.270;9.996;2023-03-24T01:05:03;11.10;99.90
21302;DHT22;10810;48.270;9.996;2023-03-24T01:07:31;11.10;99.90
21302;DHT22;10810;48.270;9.996;2023-03-24T01:09:58;11.10;99.90
21302;DHT22;10810;48.270;9.996;2023-03-24T01:12:28;11.00;99.90
21302;DHT22;10810;48.270;9.996;2023-03-24T01:14:57;11.00;99.90
21302;DHT22;10810;48.270;9.996;2023-03-24T01:17:24;11.10;99.90
21302;DHT22;10810;48.270;9.996;2023-03-24T01:19:52;11.20;99.90
21302;DHT22;10810;48.270;9.996;2023-03-24T01:22:21;11.30;99.90
21302;DHT22;10810;48.270;9.996;2023-03-24T01:24:52;11.40;99.90
21302;DHT22;10810;48.270;9.996;2023-03-24T01:27:19;11.20;99.90
21302;DHT22;10810;48.270;9.996;2023-03-24T01:29:46;11.10;99.90
21302;DHT22;10810;48.270;9.996;2023-03-24T01:32:14;11.10;99.90
21302;DHT22;10810;48.270;9.996;2023-03-24T01:34:41;11.10;99.90
21302;DHT22;10810;48.270;9.996;2023-03-24T01:37:08;11.10;99.90
21302;DHT22;10810;48.270;9.996;2023-03-24T01:39:37;11.10;99.90
21302;DHT22;10810;48.270;9.996;2023-03-24T01:42:04;11.10;99.90
21302;DHT22;10810;48.270;9.996;2023-03-24T01:44:35;11.10;99.90
21302;DHT22;10810;48.270;9.996;2023-03-24T01:47:05;11.00;99.90
21302;DHT22;10810;48.270;9.996;2023-03-24T01:49:36;10.90;99.90
21302;DHT22;10810;48.270;9.996;2023-03-24T01:52:08;10.70;99.90
21302;DHT22;10810;48.270;9.996;2023-03-24T01:54:42;10.60;99.90
21302;DHT22;10810;48.270;9.996;2023-03-24T01:57:12;10.60;99.90
21302;DHT22;10810;48.270;9.996;2023-03-24T01:59:43;10.60;99.90
21302;DHT22;10810;48.270;9.996;2023-03-24T02:02:11;10.50;99.90
21302;DHT22;10810;48.270;9.996;2023-03-24T02:04:41;10.60;99.90
21302;DHT22;10810;48.270;9.996;2023-03-24T02:07:13;10.50;99.90
21302;DHT22;10810;48.270;9.996;2023-03-24T02:09:43;10.40;99.90
21302;DHT22;10810;48.270;9.996;2023-03-24T02:12:13;10.40;99.90
21302;DHT22;10810;48.270;9.996;2023-03-24T02:14:41;10.40;99.90
21302;DHT22;10810;48.270;9.996;2023-03-24T02:17:26;10.30;99.90
21302;DHT22;10810;48.270;9.996;2023-03-24T02:20:30;10.20;99.90
21302;DHT22;10810;48.270;9.996;2023-03-24T02:26:14;10.00;99.90
21302;DHT22;10810;48.270;9.996;2023-03-24T02:28:50;10.10;99.90
21302;DHT22;10810;48.270;9.996;2023-03-24T02:31:47;10.20;99.90
21302;DHT22;10810;48.270;9.996;2023-03-24T02:34:41;10.30;99.90
21302;DHT22;10810;48.270;9.996;2023-03-24T02:40:21;10.50;99.90
21302;DHT22;10810;48.270;9.996;2023-03-24T02:43:12;10.50;99.90
21302;DHT22;10810;48.270;9.996;2023-03-24T02:45:50;10.70;99.90
21302;DHT22;10810;48.270;9.996;2023-03-24T02:48:22;10.70;99.90
21302;DHT22;10810;48.270;9.996;2023-03-24T02:50:57;10.60;99.90
21302;DHT22;10810;48.270;9.996;2023-03-24T02:53:29;10.50;99.90
21302;DHT22;10810;48.270;9.996;2023-03-24T02:56:04;10.50;99.90
21302;DHT22;10810;48.270;9.996;2023-03-24T02:58:38;10.50;99.90
21302;DHT22;10810;48.270;9.996;2023-03-24T03:01:09;10.60;99.90
21302;DHT22;10810;48.270;9.996;2023-03-24T03:03:41;10.60;99.90
21302;DHT22;10810;48.270;9.996;2023-03-24T03:06:14;10.60;99.90
21302;DHT22;10810;48.270;9.996;2023-03-24T03:08:44;10.70;99.90
21302;DHT22;10810;48.270;9.996;2023-03-24T03:11:16;10.70;99.90
21302;DHT22;10810;48.270;9.996;2023-03-24T03:13:47;10.80;99.90
21302;DHT22;10810;48.270;9.996;2023-03-24T03:16:18;10.90;99.90
21302;DHT22;10810;48.270;9.996;2023-03-24T03:18:50;10.90;99.90
21302;DHT22;10810;48.270;9.996;2023-03-24T03:21:19;10.90;99.90
21302;DHT22;10810;48.270;9.996;2023-03-24T03:23:51;10.90;99.90
21302;DHT22;10810;48.270;9.996;2023-03-24T03:26:22;10.80;99.90
21302;DHT22;10810;48.270;9.996;2023-03-24T03:28:52;10.80;99.90
21302;DHT22;10810;48.270;9.996;2023-03-24T03:31:25;10.90;99.90
21302;DHT22;10810;48.270;9.996;2023-03-24T03:34:02;10.90;99.90
21302;DHT22;10810;48.270;9.996;2023-03-24T03:36:34;10.90;99.90
21302;DHT22;10810;48.270;9.996;2023-03-24T03:39:09;10.80;99.90
21302;DHT22;10810;48.270;9.996;2023-03-24T03:41:40;10.70;99.90
21302;DHT22;10810;48.270;9.996;2023-03-24T03:44:08;10.70;99.90
21302;DHT22;10810;48.270;9.996;2023-03-24T03:46:35;10.70;99.90
21302;DHT22;10810;48.270;9.996;2023-03-24T03:49:03;10.60;99.90
21302;DHT22;10810;48.270;9.996;2023-03-24T03:51:32;10.60;99.90
21302;DHT22;10810;48.270;9.996;2023-03-24T03:54:04;10.60;99.90
21302;DHT22;10810;48.270;9.996;2023-03-24T03:56:36;10.70;99.90
21302;DHT22;10810;48.270;9.996;2023-03-24T03:59:05;10.70;99.90
21302;DHT22;10810;48.270;9.996;2023-03-24T04:01:35;10.80;99.90
21302;DHT22;10810;48.270;9.996;2023-03-24T04:04:10;10.90;99.90
21302;DHT22;10810;48.270;9.996;2023-03-24T04:06:53;10.90;99.90
21302;DHT22;10810;48.270;9.996;2023-03-24T04:09:32;11.10;99.90
21302;DHT22;10810;48.270;9.996;2023-03-24T04:12:17;11.20;99.90
21302;DHT22;10810;48.270;9.996;2023-03-24T04:15:06;11.30;99.90
21302;DHT22;10810;48.270;9.996;2023-03-24T04:17:53;11.40;99.90
21302;DHT22;10810;48.270;9.996;2023-03-24T04:20:25;11.40;99.90
21302;DHT22;10810;48.270;9.996;2023-03-24T04:23:03;11.50;99.90
21302;DHT22;10810;48.270;9.996;2023-03-24T04:25:41;11.50;99.90
21302;DHT22;10810;48.270;9.996;2023-03-24T04:28:17;11.60;99.90
21302;DHT22;10810;48.270;9.996;2023-03-24T04:30:50;11.60;99.90
21302;DHT22;10810;48.270;9.996;2023-03-24T04:33:25;11.60;99.90
21302;DHT22;10810;48.270;9.996;2023-03-24T04:35:59;11.60;99.90
21302;DHT22;10810;48.270;9.996;2023-03-24T04:38:32;11.50;99.90
21302;DHT22;10810;48.270;9.996;2023-03-24T04:41:04;11.50;99.90
21302;DHT22;10810;48.270;9.996;2023-03-24T04:43:32;11.50;99.90
21302;DHT22;10810;48.270;9.996;2023-03-24T04:46:06;11.50;99.90
21302;DHT22;10810;48.270;9.996;2023-03-24T04:48:34;11.40;99.90
21302;DHT22;10810;48.270;9.996;2023-03-24T04:51:02;11.40;99.90
21302;DHT22;10810;48.270;9.996;2023-03-24T04:53:29;11.40;99.90
21302;DHT22;10810;48.270;9.996;2023-03-24T04:56:03;11.40;99.90
21302;DHT22;10810;48.270;9.996;2023-03-24T04:58:32;11.30;99.90
21302;DHT22;10810;48.270;9.996;2023-03-24T05:00:59;11.20;99.90
21302;DHT22;10810;48.270;9.996;2023-03-24T05:03:29;11.20;99.90
21302;DHT22;10810;48.270;9.996;2023-03-24T05:05:56;11.20;99.90
21302;DHT22;10810;48.270;9.996;2023-03-24T05:08:23;11.20;99.90
21302;DHT22;10810;48.270;9.996;2023-03-24T05:10:50;11.20;99.90
21302;DHT22;10810;48.270;9.996;2023-03-24T05:13:17;11.20;99.90
21302;DHT22;10810;48.270;9.996;2023-03-24T05:15:45;11.20;99.90
21302;DHT22;10810;48.270;9.996;2023-03-24T05:18:11;11.20;99.90
21302;DHT22;10810;48.270;9.996;2023-03-24T05:20:40;11.20;99.90
21302;DHT22;10810;48.270;9.996;2023-03-24T05:23:07;11.20;99.90
21302;DHT22;10810;48.270;9.996;2023-03-24T05:25:34;11.20;99.90
21302;DHT22;10810;48.270;9.996;2023-03-24T05:28:01;11.20;99.90
21302;DHT22;10810;48.270;9.996;2023-03-24T05:30:28;11.20;99.90
21302;DHT22;10810;48.270;9.996;2023-03-24T05:32:55;11.20;99.90
21302;DHT22;10810;48.270;9.996;2023-03-24T05:35:22;11.10;99.90
21302;DHT22;10810;48.270;9.996;2023-03-24T05:37:51;11.00;99.90
21302;DHT22;10810;48.270;9.996;2023-03-24T05:40:18;10.80;99.90
21302;DHT22;10810;48.270;9.996;2023-03-24T05:42:48;10.70;99.90
21302;DHT22;10810;48.270;9.996;2023-03-24T05:45:21;10.60;99.90
21302;DHT22;10810;48.270;9.996;2023-03-24T05:47:49;10.60;99.90
21302;DHT22;10810;48.270;9.996;2023-03-24T05:50:17;10.70;99.90
21302;DHT22;10810;48.270;9.996;2023-03-24T05:52:53;10.70;99.90
21302;DHT22;10810;48.270;9.996;2023-03-24T05:55:20;10.90;99.90
21302;DHT22;10810;48.270;9.996;2023-03-24T05:57:47;10.90;99.90
21302;DHT22;10810;48.270;9.996;2023-03-24T06:00:16;10.90;99.90
21302;DHT22;10810;48.270;9.996;2023-03-24T06:02:45;11.00;99.90
21302;DHT22;10810;48.270;9.996;2023-03-24T06:05:12;11.10;99.90
21302;DHT22;10810;48.270;9.996;2023-03-24T06:07:40;11.20;99.90
21302;DHT22;10810;48.270;9.996;2023-03-24T06:10:10;11.20;99.90
21302;DHT22;10810;48.270;9.996;2023-03-24T06:12:39;11.20;99.90
21302;DHT22;10810;48.270;9.996;2023-03-24T06:15:08;11.20;99.90
21302;DHT22;10810;48.270;9.996;2023-03-24T06:17:35;11.10;99.90
21302;DHT22;10810;48.270;9.996;2023-03-24T06:20:03;11.20;99.90
21302;DHT22;10810;48.270;9.996;2023-03-24T06:22:39;11.30;99.90
21302;DHT22;10810;48.270;9.996;2023-03-24T06:25:09;11.30;99.90
21302;DHT22;10810;48.270;9.996;2023-03-24T06:27:36;11.30;99.90
21302;DHT22;10810;48.270;9.996;2023-03-24T06:30:05;11.30;99.90
21302;DHT22;10810;48.270;9.996;2023-03-24T06:32:33;11.30;99.90
21302;DHT22;10810;48.270;9.996;2023-03-24T06:35:00;11.30;99.90
21302;DHT22;10810;48.270;9.996;2023-03-24T06:37:27;11.30;99.90
21302;DHT22;10810;48.270;9.996;2023-03-24T06:39:55;11.30;99.90
21302;DHT22;10810;48.270;9.996;2023-03-24T06:42:23;11.30;99.90
21302;DHT22;10810;48.270;9.996;2023-03-24T06:44:51;11.30;99.90
21302;DHT22;10810;48.270;9.996;2023-03-24T06:47:18;11.30;99.90
21302;DHT22;10810;48.270;9.996;2023-03-24T06:49:45;11.30;99.90
21302;DHT22;10810;48.270;9.996;2023-03-24T06:52:12;11.30;99.90
21302;DHT22;10810;48.270;9.996;2023-03-24T06:54:40;11.30;99.90
21302;DHT22;10810;48.270;9.996;2023-03-24T06:57:07;11.30;99.90
21302;DHT22;10810;48.270;9.996;2023-03-24T06:59:38;11.20;99.90
21302;DHT22;10810;48.270;9.996;2023-03-24T07:02:05;11.30;99.90
21302;DHT22;10810;48.270;9.996;2023-03-24T07:04:32;11.40;99.90
21302;DHT22;10810;48.270;9.996;2023-03-24T07:07:01;11.40;99.90
21302;DHT22;10810;48.270;9.996;2023-03-24T07:09:28;11.40;99.90
21302;DHT22;10810;48.270;9.996;2023-03-24T07:11:55;11.50;99.90
21302;DHT22;10810;48.270;9.996;2023-03-24T07:14:22;11.50;99.90
21302;DHT22;10810;48.270;9.996;2023-03-24T07:16:52;11.60;99.90
21302;DHT22;10810;48.270;9.996;2023-03-24T07:19:19;11.70;99.90
21302;DHT22;10810;48.270;9.996;2023-03-24T07:21:47;11.70;99.90
21302;DHT22;10810;48.270;9.996;2023-03-24T07:24:15;11.80;99.90
21302;DHT22;10810;48.270;9.996;2023-03-24T07:26:44;11.80;99.90
21302;DHT22;10810;48.270;9.996;2023-03-24T07:29:11;11.80;99.90
21302;DHT22;10810;48.270;9.996;2023-03-24T07:31:38;11.80;99.90
21302;DHT22;10810;48.270;9.996;2023-03-24T07:34:07;11.90;99.90
21302;DHT22;10810;48.270;9.996;2023-03-24T07:36:34;11.90;99.90
21302;DHT22;10810;48.270;9.996;2023-03-24T07:39:01;11.90;99.90
21302;DHT22;10810;48.270;9.996;2023-03-24T07:41:29;12.00;99.90
21302;DHT22;10810;48.270;9.996;2023-03-24T07:43:57;12.00;99.90
21302;DHT22;10810;48.270;9.996;2023-03-24T07:46:24;12.10;99.90
21302;DHT22;10810;48.270;9.996;2023-03-24T07:48:52;12.10;99.90
21302;DHT22;10810;48.270;9.996;2023-03-24T07:51:39;12.10;99.90
21302;DHT22;10810;48.270;9.996;2023-03-24T07:55:06;12.10;99.90
21302;DHT22;10810;48.270;9.996;2023-03-24T07:57:40;12.10;99.90
21302;DHT22;10810;48.270;9.996;2023-03-24T08:00:22;12.20;99.90
21302;DHT22;10810;48.270;9.996;2023-03-24T08:02:50;12.20;99.90
21302;DHT22;10810;48.270;9.996;2023-03-24T08:05:29;12.30;99.90
21302;DHT22;10810;48.270;9.996;2023-03-24T08:08:00;12.30;99.90
21302;DHT22;10810;48.270;9.996;2023-03-24T08:10:33;12.40;99.90
21302;DHT22;10810;48.270;9.996;2023-03-24T08:13:00;12.40;99.90
21302;DHT22;10810;48.270;9.996;2023-03-24T08:15:27;12.40;99.90
21302;DHT22;10810;48.270;9.996;2023-03-24T08:17:54;12.40;99.90
21302;DHT22;10810;48.270;9.996;2023-03-24T08:20:22;12.30;99.90
21302;DHT22;10810;48.270;9.996;2023-03-24T08:22:51;12.30;99.90
21302;DHT22;10810;48.270;9.996;2023-03-24T08:25:22;12.30;99.90
21302;DHT22;10810;48.270;9.996;2023-03-24T08:27:50;12.30;99.90
21302;DHT22;10810;48.270;9.996;2023-03-24T08:30:18;12.30;99.90
21302;DHT22;10810;48.270;9.996;2023-03-24T08:32:47;12.20;99.90
21302;DHT22;10810;48.270;9.996;2023-03-24T08:35:17;12.20;99.90
21302;DHT22;10810;48.270;9.996;2023-03-24T08:37:45;12.20;99.90
21302;DHT22;10810;48.270;9.996;2023-03-24T08:40:17;12.20;99.90
21302;DHT22;10810;48.270;9.996;2023-03-24T08:42:49;12.20;99.90
21302;DHT22;10810;48.270;9.996;2023-03-24T08:45:17;12.20;99.90
21302;DHT22;10810;48.270;9.996;2023-03-24T08:47:45;12.20;99.90
21302;DHT22;10810;48.270;9.996;2023-03-24T08:50:13;12.20;99.90
21302;DHT22;10810;48.270;9.996;2023-03-24T08:52:40;12.20;99.90
21302;DHT22;10810;48.270;9.996;2023-03-24T08:55:08;12.20;99.90
21302;DHT22;10810;48.270;9.996;2023-03-24T08:57:36;12.20;99.90
21302;DHT22;10810;48.270;9.996;2023-03-24T09:00:05;12.20;99.90
21302;DHT22;10810;48.270;9.996;2023-03-24T09:02:38;12.20;99.90
21302;DHT22;10810;48.270;9.996;2023-03-24T09:05:05;12.10;99.90
21302;DHT22;10810;48.270;9.996;2023-03-24T09:07:32;12.20;99.90
21302;DHT22;10810;48.270;9.996;2023-03-24T09:09:59;12.20;99.90
21302;DHT22;10810;48.270;9.996;2023-03-24T09:12:28;12.20;99.90
21302;DHT22;10810;48.270;9.996;2023-03-24T09:14:55;12.40;99.90
21302;DHT22;10810;48.270;9.996;2023-03-24T09:17:23;12.40;99.90
21302;DHT22;10810;48.270;9.996;2023-03-24T09:19:52;12.50;99.90
21302;DHT22;10810;48.270;9.996;2023-03-24T09:22:19;12.40;99.90
21302;DHT22;10810;48.270;9.996;2023-03-24T09:24:46;12.40;99.90
21302;DHT22;10810;48.270;9.996;2023-03-24T09:27:13;12.40;99.90
21302;DHT22;10810;48.270;9.996;2023-03-24T09:29:41;12.30;99.90
21302;DHT22;10810;48.270;9.996;2023-03-24T09:32:08;12.30;99.90
21302;DHT22;10810;48.270;9.996;2023-03-24T09:34:36;12.30;99.90
21302;DHT22;10810;48.270;9.996;2023-03-24T09:37:03;12.30;99.90
21302;DHT22;10810;48.270;9.996;2023-03-24T09:39:35;12.30;99.90
21302;DHT22;10810;48.270;9.996;2023-03-24T09:42:03;12.30;99.90
21302;DHT22;10810;48.270;9.996;2023-03-24T09:44:34;12.30;99.90
21302;DHT22;10810;48.270;9.996;2023-03-24T09:47:04;12.30;99.90
21302;DHT22;10810;48.270;9.996;2023-03-24T09:49:39;12.30;99.90
21302;DHT22;10810;48.270;9.996;2023-03-24T09:52:11;12.30;99.90
21302;DHT22;10810;48.270;9.996;2023-03-24T09:54:43;12.20;99.90
21302;DHT22;10810;48.270;9.996;2023-03-24T09:57:17;12.20;99.90
21302;DHT22;10810;48.270;9.996;2023-03-24T09:59:46;12.10;99.90
21302;DHT22;10810;48.270;9.996;2023-03-24T10:02:15;12.10;99.90
21302;DHT22;10810;48.270;9.996;2023-03-24T10:04:45;12.10;99.90
21302;DHT22;10810;48.270;9.996;2023-03-24T10:07:18;12.10;99.90
21302;DHT22;10810;48.270;9.996;2023-03-24T10:09:54;12.20;99.90
21302;DHT22;10810;48.270;9.996;2023-03-24T10:12:31;12.40;99.90
21302;DHT22;10810;48.270;9.996;2023-03-24T10:15:13;12.50;99.90
21302;DHT22;10810;48.270;9.996;2023-03-24T10:17:50;12.60;99.90
21302;DHT22;10810;48.270;9.996;2023-03-24T10:20:27;12.70;99.90
21302;DHT22;10810;48.270;9.996;2023-03-24T10:23:11;12.80;99.90
21302;DHT22;10810;48.270;9.996;2023-03-24T10:25:51;12.90;99.90
21302;DHT22;10810;48.270;9.996;2023-03-24T10:28:23;13.00;99.90
21302;DHT22;10810;48.270;9.996;2023-03-24T10:30:52;13.10;99.90
21302;DHT22;10810;48.270;9.996;2023-03-24T10:33:21;13.20;99.90
21302;DHT22;10810;48.270;9.996;2023-03-24T10:35:57;13.20;99.90
21302;DHT22;10810;48.270;9.996;2023-03-24T10:39:01;13.30;99.90
21302;DHT22;10810;48.270;9.996;2023-03-24T10:41:22;13.40;99.90
21302;DHT22;10810;48.270;9.996;2023-03-24T10:43:51;13.70;99.90
21302;DHT22;10810;48.270;9.996;2023-03-24T10:46:20;14.00;99.90
21302;DHT22;10810;48.270;9.996;2023-03-24T10:48:52;14.30;99.90
21302;DHT22;10810;48.270;9.996;2023-03-24T10:51:25;14.40;99.90
21302;DHT22;10810;48.270;9.996;2023-03-24T10:54:10;14.30;99.90
21302;DHT22;10810;48.270;9.996;2023-03-24T10:56:40;14.30;99.90
21302;DHT22;10810;48.270;9.996;2023-03-24T10:59:24;14.30;99.90
21302;DHT22;10810;48.270;9.996;2023-03-24T11:01:57;14.40;99.90
21302;DHT22;10810;48.270;9.996;2023-03-24T11:04:25;14.40;99.90
21302;DHT22;10810;48.270;9.996;2023-03-24T11:07:02;14.30;99.90
21302;DHT22;10810;48.270;9.996;2023-03-24T11:09:38;14.30;99.90
21302;DHT22;10810;48.270;9.996;2023-03-24T11:12:19;14.30;99.90
21302;DHT22;10810;48.270;9.996;2023-03-24T11:14:47;14.30;99.90
21302;DHT22;10810;48.270;9.996;2023-03-24T11:17:14;14.20;99.90
21302;DHT22;10810;48.270;9.996;2023-03-24T11:19:50;14.20;99.90
21302;DHT22;10810;48.270;9.996;2023-03-24T11:22:20;14.20;99.90
21302;DHT22;10810;48.270;9.996;2023-03-24T11:24:49;14.20;99.90
21302;DHT22;10810;48.270;9.996;2023-03-24T11:27:19;14.20;99.90
21302;DHT22;10810;48.270;9.996;2023-03-24T11:29:50;14.10;99.90
21302;DHT22;10810;48.270;9.996;2023-03-24T11:32:22;14.00;99.90
21302;DHT22;10810;48.270;9.996;2023-03-24T11:34:58;13.90;99.90
21302;DHT22;10810;48.270;9.996;2023-03-24T11:37:30;13.90;99.90
21302;DHT22;10810;48.270;9.996;2023-03-24T11:40:17;13.90;99.90
21302;DHT22;10810;48.270;9.996;2023-03-24T11:42:45;13.80;99.90
21302;DHT22;10810;48.270;9.996;2023-03-24T11:45:25;13.70;99.90
21302;DHT22;10810;48.270;9.996;2023-03-24T11:47:55;13.80;99.90
21302;DHT22;10810;48.270;9.996;2023-03-24T11:50:27;13.80;99.90
21302;DHT22;10810;48.270;9.996;2023-03-24T11:53:01;13.80;99.90
21302;DHT22;10810;48.270;9.996;2023-03-24T11:55:41;13.70;99.90
21302;DHT22;10810;48.270;9.996;2023-03-24T11:58:22;13.60;99.90
21302;DHT22;10810;48.270;9.996;2023-03-24T12:00:56;13.60;99.90
21302;DHT22;10810;48.270;9.996;2023-03-24T12:04:03;13.50;99.90
21302;DHT22;10810;48.270;9.996;2023-03-24T12:06:40;13.40;99.90
21302;DHT22;10810;48.270;9.996;2023-03-24T12:09:20;13.10;99.90
21302;DHT22;10810;48.270;9.996;2023-03-24T12:11:58;13.00;99.90
21302;DHT22;10810;48.270;9.996;2023-03-24T12:14:41;12.90;99.90
21302;DHT22;10810;48.270;9.996;2023-03-24T12:23:45;12.80;99.90
21302;DHT22;10810;48.270;9.996;2023-03-24T12:29:52;13.00;99.90
21302;DHT22;10810;48.270;9.996;2023-03-24T12:33:17;13.10;99.90
21302;DHT22;10810;48.270;9.996;2023-03-24T12:35:48;13.20;99.90
21302;DHT22;10810;48.270;9.996;2023-03-24T12:38:40;13.30;99.90
21302;DHT22;10810;48.270;9.996;2023-03-24T12:41:27;13.30;99.90
21302;DHT22;10810;48.270;9.996;2023-03-24T12:44:19;13.30;99.90
21302;DHT22;10810;48.270;9.996;2023-03-24T12:46:57;13.30;99.90
21302;DHT22;10810;48.270;9.996;2023-03-24T12:49:47;13.10;99.90
21302;DHT22;10810;48.270;9.996;2023-03-24T12:52:35;13.20;99.90
21302;DHT22;10810;48.270;9.996;2023-03-24T12:55:12;13.20;99.90
21302;DHT22;10810;48.270;9.996;2023-03-24T12:57:46;13.00;99.90
21302;DHT22;10810;48.270;9.996;2023-03-24T13:00:26;13.20;99.90
21302;DHT22;10810;48.270;9.996;2023-03-24T13:02:57;13.30;99.90
21302;DHT22;10810;48.270;9.996;2023-03-24T13:05:30;13.20;99.90
21302;DHT22;10810;48.270;9.996;2023-03-24T13:08:00;13.20;99.90
21302;DHT22;10810;48.270;9.996;2023-03-24T13:10:31;13.20;99.90
21302;DHT22;10810;48.270;9.996;2023-03-24T13:13:11;13.20;99.90
21302;DHT22;10810;48.270;9.996;2023-03-24T13:15:42;13.20;99.90
21302;DHT22;10810;48.270;9.996;2023-03-24T13:18:23;13.10;99.90
21302;DHT22;10810;48.270;9.996;2023-03-24T13:20:54;13.00;99.90
21302;DHT22;10810;48.270;9.996;2023-03-24T13:23:45;13.00;99.90
21302;DHT22;10810;48.270;9.996;2023-03-24T13:26:24;12.90;99.90
21302;DHT22;10810;48.270;9.996;2023-03-24T13:29:03;12.90;99.90
21302;DHT22;10810;48.270;9.996;2023-03-24T13:31:35;12.90;99.90
21302;DHT22;10810;48.270;9.996;2023-03-24T13:34:17;13.00;99.90
21302;DHT22;10810;48.270;9.996;2023-03-24T13:37:10;13.10;99.90
21302;DHT22;10810;48.270;9.996;2023-03-24T13:39:42;13.10;99.90
21302;DHT22;10810;48.270;9.996;2023-03-24T13:42:28;13.10;99.90
21302;DHT22;10810;48.270;9.996;2023-03-24T13:44:58;13.10;99.90
21302;DHT22;10810;48.270;9.996;2023-03-24T13:47:25;13.10;99.90
21302;DHT22;10810;48.270;9.996;2023-03-24T13:50:00;13.30;99.90
21302;DHT22;10810;48.270;9.996;2023-03-24T13:52:34;13.20;99.90
21302;DHT22;10810;48.270;9.996;2023-03-24T13:55:12;13.20;99.90
21302;DHT22;10810;48.270;9.996;2023-03-24T13:57:40;13.20;99.90
21302;DHT22;10810;48.270;9.996;2023-03-24T14:00:26;13.20;99.90
21302;DHT22;10810;48.270;9.996;2023-03-24T14:02:54;13.20;99.90
21302;DHT22;10810;48.270;9.996;2023-03-24T14:05:43;13.10;99.90
21302;DHT22;10810;48.270;9.996;2023-03-24T14:08:35;13.10;99.90
21302;DHT22;10810;48.270;9.996;2023-03-24T14:13:52;13.00;99.90
21302;DHT22;10810;48.270;9.996;2023-03-24T14:16:34;12.90;99.90
21302;DHT22;10810;48.270;9.996;2023-03-24T14:19:18;12.80;99.90
21302;DHT22;10810;48.270;9.996;2023-03-24T14:24:34;12.70;99.90
21302;DHT22;10810;48.270;9.996;2023-03-24T14:27:20;12.60;99.90
21302;DHT22;10810;48.270;9.996;2023-03-24T14:29:49;12.50;99.90
21302;DHT22;10810;48.270;9.996;2023-03-24T14:32:18;12.50;99.90
21302;DHT22;10810;48.270;9.996;2023-03-24T14:34:56;12.40;99.90
21302;DHT22;10810;48.270;9.996;2023-03-24T14:43:58;12.20;99.90
21302;DHT22;10810;48.270;9.996;2023-03-24T14:46:40;11.40;99.90
21302;DHT22;10810;48.270;9.996;2023-03-24T14:49:30;12.00;99.90
21302;DHT22;10810;48.270;9.996;2023-03-24T14:52:18;11.90;99.90
21302;DHT22;10810;48.270;9.996;2023-03-24T14:54:58;11.80;99.90
21302;DHT22;10810;48.270;9.996;2023-03-24T14:57:46;11.70;99.90
21302;DHT22;10810;48.270;9.996;2023-03-24T15:00:21;11.60;99.90
21302;DHT22;10810;48.270;9.996;2023-03-24T15:02:57;11.50;99.90
21302;DHT22;10810;48.270;9.996;2023-03-24T15:05:48;11.40;99.90
21302;DHT22;10810;48.270;9.996;2023-03-24T15:08:21;11.40;99.90
21302;DHT22;10810;48.270;9.996;2023-03-24T15:10:59;11.30;99.90
21302;DHT22;10810;48.270;9.996;2023-03-24T15:13:52;11.30;99.90
21302;DHT22;10810;48.270;9.996;2023-03-24T15:16:27;11.20;99.90
21302;DHT22;10810;48.270;9.996;2023-03-24T15:19:03;11.10;99.90
21302;DHT22;10810;48.270;9.996;2023-03-24T15:21:33;11.10;99.90
21302;DHT22;10810;48.270;9.996;2023-03-24T15:25:15;11.00;99.90
21302;DHT22;10810;48.270;9.996;2023-03-24T15:27:31;11.10;99.90
21302;DHT22;10810;48.270;9.996;2023-03-24T15:39:35;11.10;99.90
21302;DHT22;10810;48.270;9.996;2023-03-24T15:42:44;11.10;99.90
21302;DHT22;10810;48.270;9.996;2023-03-24T15:47:18;11.10;99.90
21302;DHT22;10810;48.270;9.996;2023-03-24T15:48:55;11.10;99.90
21302;DHT22;10810;48.270;9.996;2023-03-24T15:51:46;11.00;99.90
21302;DHT22;10810;48.270;9.996;2023-03-24T15:54:29;11.00;99.90
21302;DHT22;10810;48.270;9.996;2023-03-24T16:01:00;11.10;99.90
21302;DHT22;10810;48.270;9.996;2023-03-24T16:03:46;11.00;99.90
21302;DHT22;10810;48.270;9.996;2023-03-24T16:06:47;11.00;99.90
21302;DHT22;10810;48.270;9.996;2023-03-24T16:09:18;11.00;99.90
21302;DHT22;10810;48.270;9.996;2023-03-24T16:11:47;11.00;99.90
21302;DHT22;10810;48.270;9.996;2023-03-24T16:14:23;11.10;99.90
21302;DHT22;10810;48.270;9.996;2023-03-24T16:16:53;11.10;99.90
21302;DHT22;10810;48.270;9.996;2023-03-24T16:19:21;11.10;99.90
21302;DHT22;10810;48.270;9.996;2023-03-24T16:21:48;11.10;99.90
21302;DHT22;10810;48.270;9.996;2023-03-24T16:24:16;11.00;99.90
21302;DHT22;10810;48.270;9.996;2023-03-24T16:26:57;11.00;99.90
21302;DHT22;10810;48.270;9.996;2023-03-24T16:29:38;10.90;99.90
21302;DHT22;10810;48.270;9.996;2023-03-24T16:32:10;10.90;99.90
21302;DHT22;10810;48.270;9.996;2023-03-24T16:36:04;10.90;99.90
21302;DHT22;10810;48.270;9.996;2023-03-24T16:38:13;10.90;99.90
21302;DHT22;10810;48.270;9.996;2023-03-24T16:40:52;10.80;99.90
21302;DHT22;10810;48.270;9.996;2023-03-24T16:43:23;10.80;99.90
21302;DHT22;10810;48.270;9.996;2023-03-24T16:46:30;10.80;99.90
21302;DHT22;10810;48.270;9.996;2023-03-24T16:49:04;10.80;99.90
21302;DHT22;10810;48.270;9.996;2023-03-24T16:51:31;10.80;99.90